sensor_id;sensor_type;location;lat;lon;timestamp;temperature;humidity
17715;DHT22;8977;50.902;4.314;2023-04-25T00:01:28;13.10;99.90
17715;DHT22;8977;50.902;4.314;2023-04-25T00:03:55;13.10;99.90
17715;DHT22;8977;50.902;4.314;2023-04-25T00:06:22;13.30;99.90
17715;DHT22;8977;50.902;4.314;2023-04-25T00:08:53;13.30;99.90
17715;DHT22;8977;50.902;4.314;2023-04-25T00:11:23;13.20;99.90
17715;DHT22;8977;50.902;4.314;2023-04-25T00:13:51;13.20;99.90
17715;DHT22;8977;50.902;4.314;2023-04-25T00:16:20;13.10;99.90
17715;DHT22;8977;50.902;4.314;2023-04-25T00:18:49;13.10;99.90
17715;DHT22;8977;50.902;4.314;2023-04-25T00:21:20;13.10;99.90
17715;DHT22;8977;50.902;4.314;2023-04-25T00:23:47;13.10;99.90
17715;DHT22;8977;50.902;4.314;2023-04-25T00:26:16;13.10;99.90
17715;DHT22;8977;50.902;4.314;2023-04-25T00:28:43;13.10;99.90
17715;DHT22;8977;50.902;4.314;2023-04-25T00:31:10;13.10;99.90
17715;DHT22;8977;50.902;4.314;2023-04-25T00:33:36;13.10;99.90
17715;DHT22;8977;50.902;4.314;2023-04-25T00:36:06;13.20;99.90
17715;DHT22;8977;50.902;4.314;2023-04-25T00:38:33;13.20;99.90
17715;DHT22;8977;50.902;4.314;2023-04-25T00:41:01;13.20;99.90
17715;DHT22;8977;50.902;4.314;2023-04-25T00:43:31;13.10;99.90
17715;DHT22;8977;50.902;4.314;2023-04-25T00:46:00;13.10;99.90
17715;DHT22;8977;50.902;4.314;2023-04-25T00:48:27;13.10;99.90
17715;DHT22;8977;50.902;4.314;2023-04-25T00:50:56;13.20;99.90
17715;DHT22;8977;50.902;4.314;2023-04-25T00:53:27;13.10;99.90
17715;DHT22;8977;50.902;4.314;2023-04-25T00:55:55;13.20;99.90
17715;DHT22;8977;50.902;4.314;2023-04-25T00:58:22;13.20;99.90
17715;DHT22;8977;50.902;4.314;2023-04-25T01:00:51;13.10;99.90
17715;DHT22;8977;50.902;4.314;2023-04-25T01:03:18;13.10;99.90
17715;DHT22;8977;50.902;4.314;2023-04-25T01:05:46;13.10;99.90
17715;DHT22;8977;50.902;4.314;2023-04-25T01:08:14;13.10;99.90
17715;DHT22;8977;50.902;4.314;2023-04-25T01:10:41;13.10;99.90
17715;DHT22;8977;50.902;4.314;2023-04-25T01:13:08;13.10;99.90
17715;DHT22;8977;50.902;4.314;2023-04-25T01:15:35;13.10;99.90
17715;DHT22;8977;50.902;4.314;2023-04-25T01:18:06;13.10;99.90
17715;DHT22;8977;50.902;4.314;2023-04-25T01:20:33;13.10;99.90
17715;DHT22;8977;50.902;4.314;2023-04-25T01:23:04;13.00;99.90
17715;DHT22;8977;50.902;4.314;2023-04-25T01:25:32;13.10;99.90
17715;DHT22;8977;50.902;4.314;2023-04-25T01:27:59;13.00;99.90
17715;DHT22;8977;50.902;4.314;2023-04-25T01:30:26;13.00;99.90
17715;DHT22;8977;50.902;4.314;2023-04-25T01:32:55;13.00;99.90
17715;DHT22;8977;50.902;4.314;2023-04-25T01:35:23;13.00;99.90
17715;DHT22;8977;50.902;4.314;2023-04-25T01:37:51;13.00;99.90
17715;DHT22;8977;50.902;4.314;2023-04-25T01:40:22;12.90;99.90
17715;DHT22;8977;50.902;4.314;2023-04-25T01:42:51;12.90;99.90
17715;DHT22;8977;50.902;4.314;2023-04-25T01:45:19;12.90;99.90
17715;DHT22;8977;50.902;4.314;2023-04-25T01:47:46;12.90;99.90
17715;DHT22;8977;50.902;4.314;2023-04-25T01:50:16;12.90;99.90
17715;DHT22;8977;50.902;4.314;2023-04-25T01:52:46;12.90;99.90
17715;DHT22;8977;50.902;4.314;2023-04-25T01:55:12;12.80;99.90
17715;DHT22;8977;50.902;4.314;2023-04-25T01:57:43;12.80;99.90
17715;DHT22;8977;50.902;4.314;2023-04-25T02:00:11;12.70;99.90
17715;DHT22;8977;50.902;4.314;2023-04-25T02:02:39;12.70;99.90
17715;DHT22;8977;50.902;4.314;2023-04-25T02:05:07;12.70;99.90
17715;DHT22;8977;50.902;4.314;2023-04-25T02:07:37;12.70;99.90
17715;DHT22;8977;50.902;4.314;2023-04-25T02:10:05;12.70;99.90
17715;DHT22;8977;50.902;4.314;2023-04-25T02:12:32;12.70;99.90
17715;DHT22;8977;50.902;4.314;2023-04-25T02:15:01;12.70;99.90
17715;DHT22;8977;50.902;4.314;2023-04-25T02:17:29;12.80;99.90
17715;DHT22;8977;50.902;4.314;2023-04-25T02:19:57;12.70;99.90
17715;DHT22;8977;50.902;4.314;2023-04-25T02:22:24;12.70;99.90
17715;DHT22;8977;50.902;4.314;2023-04-25T02:24:53;12.80;99.90
17715;DHT22;8977;50.902;4.314;2023-04-25T02:27:20;12.80;99.90
17715;DHT22;8977;50.902;4.314;2023-04-25T02:29:48;12.80;99.90
17715;DHT22;8977;50.902;4.314;2023-04-25T02:32:16;12.80;99.90
17715;DHT22;8977;50.902;4.314;2023-04-25T02:34:43;12.70;99.90
17715;DHT22;8977;50.902;4.314;2023-04-25T02:37:10;12.70;99.90
17715;DHT22;8977;50.902;4.314;2023-04-25T02:39:38;12.70;99.90
17715;DHT22;8977;50.902;4.314;2023-04-25T02:42:05;12.70;99.90
17715;DHT22;8977;50.902;4.314;2023-04-25T02:44:32;12.70;99.90
17715;DHT22;8977;50.902;4.314;2023-04-25T02:47:01;12.70;99.90
17715;DHT22;8977;50.902;4.314;2023-04-25T02:49:29;12.70;99.90
17715;DHT22;8977;50.902;4.314;2023-04-25T02:51:56;12.60;99.90
17715;DHT22;8977;50.902;4.314;2023-04-25T02:54:23;12.70;99.90
17715;DHT22;8977;50.902;4.314;2023-04-25T02:56:50;12.70;99.90
17715;DHT22;8977;50.902;4.314;2023-04-25T02:59:17;12.70;99.90
17715;DHT22;8977;50.902;4.314;2023-04-25T03:01:44;12.70;99.90
17715;DHT22;8977;50.902;4.314;2023-04-25T03:04:13;12.70;99.90
17715;DHT22;8977;50.902;4.314;2023-04-25T03:06:42;12.70;99.90
17715;DHT22;8977;50.902;4.314;2023-04-25T03:09:09;12.70;99.90
17715;DHT22;8977;50.902;4.314;2023-04-25T03:11:38;12.70;99.90
17715;DHT22;8977;50.902;4.314;2023-04-25T03:14:05;12.60;99.90
17715;DHT22;8977;50.902;4.314;2023-04-25T03:16:32;12.70;99.90
17715;DHT22;8977;50.902;4.314;2023-04-25T03:18:59;12.60;99.90
17715;DHT22;8977;50.902;4.314;2023-04-25T03:21:26;12.50;99.90
17715;DHT22;8977;50.902;4.314;2023-04-25T03:23:54;12.50;99.90
17715;DHT22;8977;50.902;4.314;2023-04-25T03:26:23;12.50;99.90
17715;DHT22;8977;50.902;4.314;2023-04-25T03:28:50;12.50;99.90
17715;DHT22;8977;50.902;4.314;2023-04-25T03:31:18;12.60;99.90
17715;DHT22;8977;50.902;4.314;2023-04-25T03:33:45;12.50;99.90
17715;DHT22;8977;50.902;4.314;2023-04-25T03:36:12;12.40;99.90
17715;DHT22;8977;50.902;4.314;2023-04-25T03:38:39;12.40;99.90
17715;DHT22;8977;50.902;4.314;2023-04-25T03:41:08;12.50;99.90
17715;DHT22;8977;50.902;4.314;2023-04-25T03:43:36;12.40;99.90
17715;DHT22;8977;50.902;4.314;2023-04-25T03:46:04;12.40;99.90
17715;DHT22;8977;50.902;4.314;2023-04-25T03:48:31;12.40;99.90
17715;DHT22;8977;50.902;4.314;2023-04-25T03:50:58;12.40;99.90
17715;DHT22;8977;50.902;4.314;2023-04-25T03:53:31;12.30;99.90
17715;DHT22;8977;50.902;4.314;2023-04-25T03:55:57;12.40;99.90
17715;DHT22;8977;50.902;4.314;2023-04-25T03:58:26;12.30;99.90
17715;DHT22;8977;50.902;4.314;2023-04-25T04:00:54;12.40;99.90
17715;DHT22;8977;50.902;4.314;2023-04-25T04:03:21;12.40;99.90
17715;DHT22;8977;50.902;4.314;2023-04-25T04:05:48;12.40;99.90
17715;DHT22;8977;50.902;4.314;2023-04-25T04:08:17;12.40;99.90
17715;DHT22;8977;50.902;4.314;2023-04-25T04:10:43;12.40;99.90
17715;DHT22;8977;50.902;4.314;2023-04-25T04:13:10;12.40;99.90
17715;DHT22;8977;50.902;4.314;2023-04-25T04:15:39;12.50;99.90
17715;DHT22;8977;50.902;4.314;2023-04-25T04:18:07;12.50;99.90
17715;DHT22;8977;50.902;4.314;2023-04-25T04:20:34;12.50;99.90
17715;DHT22;8977;50.902;4.314;2023-04-25T04:23:01;12.50;99.90
17715;DHT22;8977;50.902;4.314;2023-04-25T04:25:28;12.50;99.90
17715;DHT22;8977;50.902;4.314;2023-04-25T04:27:58;12.50;99.90
17715;DHT22;8977;50.902;4.314;2023-04-25T04:30:26;12.50;99.90
17715;DHT22;8977;50.902;4.314;2023-04-25T04:32:56;12.40;99.90
17715;DHT22;8977;50.902;4.314;2023-04-25T04:35:23;12.40;99.90
17715;DHT22;8977;50.902;4.314;2023-04-25T04:37:51;12.40;99.90
17715;DHT22;8977;50.902;4.314;2023-04-25T04:40:19;12.30;99.90
17715;DHT22;8977;50.902;4.314;2023-04-25T04:42:46;12.20;99.90
17715;DHT22;8977;50.902;4.314;2023-04-25T04:45:14;12.30;99.90
17715;DHT22;8977;50.902;4.314;2023-04-25T04:47:41;12.20;99.90
17715;DHT22;8977;50.902;4.314;2023-04-25T04:50:10;12.20;99.90
17715;DHT22;8977;50.902;4.314;2023-04-25T04:52:39;12.30;99.90
17715;DHT22;8977;50.902;4.314;2023-04-25T04:55:08;12.20;99.90
17715;DHT22;8977;50.902;4.314;2023-04-25T04:57:36;12.20;99.90
17715;DHT22;8977;50.902;4.314;2023-04-25T05:00:05;12.30;99.90
17715;DHT22;8977;50.902;4.314;2023-04-25T05:02:37;12.20;99.90
17715;DHT22;8977;50.902;4.314;2023-04-25T05:05:05;12.20;99.90
17715;DHT22;8977;50.902;4.314;2023-04-25T05:07:33;12.20;99.90
17715;DHT22;8977;50.902;4.314;2023-04-25T05:10:00;12.20;99.90
17715;DHT22;8977;50.902;4.314;2023-04-25T05:12:27;12.30;99.90
17715;DHT22;8977;50.902;4.314;2023-04-25T05:14:54;12.30;99.90
17715;DHT22;8977;50.902;4.314;2023-04-25T05:17:21;12.30;99.90
17715;DHT22;8977;50.902;4.314;2023-04-25T05:19:48;12.30;99.90
17715;DHT22;8977;50.902;4.314;2023-04-25T05:22:15;12.30;99.90
17715;DHT22;8977;50.902;4.314;2023-04-25T05:24:44;12.10;99.90
17715;DHT22;8977;50.902;4.314;2023-04-25T05:27:11;12.20;99.90
17715;DHT22;8977;50.902;4.314;2023-04-25T05:29:38;12.20;99.90
17715;DHT22;8977;50.902;4.314;2023-04-25T05:32:05;12.20;99.90
17715;DHT22;8977;50.902;4.314;2023-04-25T05:34:33;12.30;99.90
17715;DHT22;8977;50.902;4.314;2023-04-25T05:37:00;12.30;99.90
17715;DHT22;8977;50.902;4.314;2023-04-25T05:39:27;12.30;99.90
17715;DHT22;8977;50.902;4.314;2023-04-25T05:41:55;12.30;99.90
17715;DHT22;8977;50.902;4.314;2023-04-25T05:44:22;12.30;99.90
17715;DHT22;8977;50.902;4.314;2023-04-25T05:46:49;12.20;99.90
17715;DHT22;8977;50.902;4.314;2023-04-25T05:49:16;12.20;99.90
17715;DHT22;8977;50.902;4.314;2023-04-25T05:51:43;12.20;99.90
17715;DHT22;8977;50.902;4.314;2023-04-25T05:54:10;12.30;99.90
17715;DHT22;8977;50.902;4.314;2023-04-25T05:56:37;12.30;99.90
17715;DHT22;8977;50.902;4.314;2023-04-25T05:59:05;12.30;99.90
17715;DHT22;8977;50.902;4.314;2023-04-25T06:01:32;12.30;99.90
17715;DHT22;8977;50.902;4.314;2023-04-25T06:03:59;12.30;99.90
17715;DHT22;8977;50.902;4.314;2023-04-25T06:06:27;12.40;99.90
17715;DHT22;8977;50.902;4.314;2023-04-25T06:08:53;12.40;99.90
17715;DHT22;8977;50.902;4.314;2023-04-25T06:11:21;12.30;99.90
17715;DHT22;8977;50.902;4.314;2023-04-25T06:13:47;12.30;99.90
17715;DHT22;8977;50.902;4.314;2023-04-25T06:16:16;12.30;99.90
17715;DHT22;8977;50.902;4.314;2023-04-25T06:18:42;12.20;99.90
17715;DHT22;8977;50.902;4.314;2023-04-25T06:21:09;12.30;99.90
17715;DHT22;8977;50.902;4.314;2023-04-25T06:23:36;12.30;99.90
17715;DHT22;8977;50.902;4.314;2023-04-25T06:26:03;12.20;99.90
17715;DHT22;8977;50.902;4.314;2023-04-25T06:28:30;12.20;99.90
17715;DHT22;8977;50.902;4.314;2023-04-25T06:30:57;12.30;99.90
17715;DHT22;8977;50.902;4.314;2023-04-25T06:33:25;12.30;99.90
17715;DHT22;8977;50.902;4.314;2023-04-25T06:35:52;12.20;99.90
17715;DHT22;8977;50.902;4.314;2023-04-25T06:38:19;12.20;99.90
17715;DHT22;8977;50.902;4.314;2023-04-25T06:40:46;12.30;99.90
17715;DHT22;8977;50.902;4.314;2023-04-25T06:43:14;12.30;99.90
17715;DHT22;8977;50.902;4.314;2023-04-25T06:45:41;12.30;99.90
17715;DHT22;8977;50.902;4.314;2023-04-25T06:48:08;12.30;99.90
17715;DHT22;8977;50.902;4.314;2023-04-25T06:50:36;12.30;99.90
17715;DHT22;8977;50.902;4.314;2023-04-25T06:53:03;12.30;99.90
17715;DHT22;8977;50.902;4.314;2023-04-25T06:55:30;12.30;99.90
17715;DHT22;8977;50.902;4.314;2023-04-25T06:57:57;12.30;99.90
17715;DHT22;8977;50.902;4.314;2023-04-25T07:00:24;12.30;99.90
17715;DHT22;8977;50.902;4.314;2023-04-25T07:02:51;12.30;99.90
17715;DHT22;8977;50.902;4.314;2023-04-25T07:05:18;12.30;99.90
17715;DHT22;8977;50.902;4.314;2023-04-25T07:07:46;12.40;99.90
17715;DHT22;8977;50.902;4.314;2023-04-25T07:10:13;12.40;99.90
17715;DHT22;8977;50.902;4.314;2023-04-25T07:12:40;12.50;99.90
17715;DHT22;8977;50.902;4.314;2023-04-25T07:15:08;12.50;99.90
17715;DHT22;8977;50.902;4.314;2023-04-25T07:17:36;12.40;99.90
17715;DHT22;8977;50.902;4.314;2023-04-25T07:20:03;12.50;99.90
17715;DHT22;8977;50.902;4.314;2023-04-25T07:22:31;12.50;99.90
17715;DHT22;8977;50.902;4.314;2023-04-25T07:24:59;12.60;99.90
17715;DHT22;8977;50.902;4.314;2023-04-25T07:27:26;12.50;99.90
17715;DHT22;8977;50.902;4.314;2023-04-25T07:29:53;12.50;99.90
17715;DHT22;8977;50.902;4.314;2023-04-25T07:32:20;12.40;99.90
17715;DHT22;8977;50.902;4.314;2023-04-25T07:34:47;12.50;99.90
17715;DHT22;8977;50.902;4.314;2023-04-25T07:37:14;12.60;99.90
17715;DHT22;8977;50.902;4.314;2023-04-25T07:39:41;12.60;99.90
17715;DHT22;8977;50.902;4.314;2023-04-25T07:42:09;12.60;99.90
17715;DHT22;8977;50.902;4.314;2023-04-25T07:44:36;12.60;99.90
17715;DHT22;8977;50.902;4.314;2023-04-25T07:47:04;12.60;99.90
17715;DHT22;8977;50.902;4.314;2023-04-25T07:49:32;12.70;99.90
17715;DHT22;8977;50.902;4.314;2023-04-25T07:52:00;12.70;99.90
17715;DHT22;8977;50.902;4.314;2023-04-25T07:54:27;12.80;99.90
17715;DHT22;8977;50.902;4.314;2023-04-25T07:56:54;12.80;99.90
17715;DHT22;8977;50.902;4.314;2023-04-25T07:59:22;12.60;99.90
17715;DHT22;8977;50.902;4.314;2023-04-25T08:01:49;12.60;99.90
17715;DHT22;8977;50.902;4.314;2023-04-25T08:04:16;12.80;99.90
17715;DHT22;8977;50.902;4.314;2023-04-25T08:06:43;12.80;99.90
17715;DHT22;8977;50.902;4.314;2023-04-25T08:09:11;12.70;99.90
17715;DHT22;8977;50.902;4.314;2023-04-25T08:11:38;12.70;99.90
17715;DHT22;8977;50.902;4.314;2023-04-25T08:14:05;12.70;99.90
17715;DHT22;8977;50.902;4.314;2023-04-25T08:16:33;12.70;99.90
17715;DHT22;8977;50.902;4.314;2023-04-25T08:19:00;12.90;99.90
17715;DHT22;8977;50.902;4.314;2023-04-25T08:21:27;13.00;99.90
17715;DHT22;8977;50.902;4.314;2023-04-25T08:23:54;12.80;99.90
17715;DHT22;8977;50.902;4.314;2023-04-25T08:26:22;12.70;99.90
17715;DHT22;8977;50.902;4.314;2023-04-25T08:28:49;12.80;99.90
17715;DHT22;8977;50.902;4.314;2023-04-25T08:31:15;12.90;99.90
17715;DHT22;8977;50.902;4.314;2023-04-25T08:33:44;12.90;99.90
17715;DHT22;8977;50.902;4.314;2023-04-25T08:36:11;13.00;99.90
17715;DHT22;8977;50.902;4.314;2023-04-25T08:38:38;12.90;99.90
17715;DHT22;8977;50.902;4.314;2023-04-25T08:41:05;12.90;99.90
17715;DHT22;8977;50.902;4.314;2023-04-25T08:43:33;13.00;99.90
17715;DHT22;8977;50.902;4.314;2023-04-25T08:46:01;12.90;99.90
17715;DHT22;8977;50.902;4.314;2023-04-25T08:48:32;12.90;99.90
17715;DHT22;8977;50.902;4.314;2023-04-25T08:51:02;13.00;99.90
17715;DHT22;8977;50.902;4.314;2023-04-25T08:53:31;13.00;99.90
17715;DHT22;8977;50.902;4.314;2023-04-25T08:56:00;13.10;99.90
17715;DHT22;8977;50.902;4.314;2023-04-25T08:58:28;13.10;99.90
17715;DHT22;8977;50.902;4.314;2023-04-25T09:00:56;13.10;99.90
17715;DHT22;8977;50.902;4.314;2023-04-25T09:03:25;13.10;99.90
17715;DHT22;8977;50.902;4.314;2023-04-25T09:05:52;13.10;99.90
17715;DHT22;8977;50.902;4.314;2023-04-25T09:08:22;13.00;99.90
17715;DHT22;8977;50.902;4.314;2023-04-25T09:10:49;13.00;99.90
17715;DHT22;8977;50.902;4.314;2023-04-25T09:13:24;12.90;99.90
17715;DHT22;8977;50.902;4.314;2023-04-25T09:15:52;12.70;99.90
17715;DHT22;8977;50.902;4.314;2023-04-25T09:18:24;12.80;99.90
17715;DHT22;8977;50.902;4.314;2023-04-25T09:20:52;12.90;99.90
17715;DHT22;8977;50.902;4.314;2023-04-25T09:23:20;12.80;99.90
17715;DHT22;8977;50.902;4.314;2023-04-25T09:25:49;12.90;99.90
17715;DHT22;8977;50.902;4.314;2023-04-25T09:28:23;12.90;99.90
17715;DHT22;8977;50.902;4.314;2023-04-25T09:30:55;12.90;99.90
17715;DHT22;8977;50.902;4.314;2023-04-25T09:33:28;12.90;99.90
17715;DHT22;8977;50.902;4.314;2023-04-25T09:36:01;13.00;99.90
17715;DHT22;8977;50.902;4.314;2023-04-25T09:38:30;13.10;99.90
17715;DHT22;8977;50.902;4.314;2023-04-25T09:40:59;13.20;99.90
17715;DHT22;8977;50.902;4.314;2023-04-25T09:43:27;13.20;99.90
17715;DHT22;8977;50.902;4.314;2023-04-25T09:45:54;13.20;99.90
17715;DHT22;8977;50.902;4.314;2023-04-25T09:48:26;13.30;99.90
17715;DHT22;8977;50.902;4.314;2023-04-25T09:51:12;13.50;99.90
17715;DHT22;8977;50.902;4.314;2023-04-25T09:53:41;13.60;99.90
17715;DHT22;8977;50.902;4.314;2023-04-25T09:56:10;13.40;99.90
17715;DHT22;8977;50.902;4.314;2023-04-25T09:58:41;13.50;99.90
17715;DHT22;8977;50.902;4.314;2023-04-25T10:01:10;13.50;99.90
17715;DHT22;8977;50.902;4.314;2023-04-25T10:03:39;13.40;99.90
17715;DHT22;8977;50.902;4.314;2023-04-25T10:06:08;13.40;99.90
17715;DHT22;8977;50.902;4.314;2023-04-25T10:08:37;13.30;99.90
17715;DHT22;8977;50.902;4.314;2023-04-25T10:11:05;13.40;99.90
17715;DHT22;8977;50.902;4.314;2023-04-25T10:13:34;13.40;99.90
17715;DHT22;8977;50.902;4.314;2023-04-25T10:16:03;13.60;99.90
17715;DHT22;8977;50.902;4.314;2023-04-25T10:18:31;13.70;99.90
17715;DHT22;8977;50.902;4.314;2023-04-25T10:21:00;13.90;99.90
17715;DHT22;8977;50.902;4.314;2023-04-25T10:23:27;13.90;99.90
17715;DHT22;8977;50.902;4.314;2023-04-25T10:25:56;13.90;99.90
17715;DHT22;8977;50.902;4.314;2023-04-25T10:28:23;13.90;99.60
17715;DHT22;8977;50.902;4.314;2023-04-25T10:31:01;13.90;99.80
17715;DHT22;8977;50.902;4.314;2023-04-25T10:33:32;13.90;99.90
17715;DHT22;8977;50.902;4.314;2023-04-25T10:36:09;13.90;99.60
17715;DHT22;8977;50.902;4.314;2023-04-25T10:38:37;13.90;99.90
17715;DHT22;8977;50.902;4.314;2023-04-25T10:41:04;13.80;99.90
17715;DHT22;8977;50.902;4.314;2023-04-25T10:43:35;13.70;99.90
17715;DHT22;8977;50.902;4.314;2023-04-25T10:46:13;13.70;99.90
17715;DHT22;8977;50.902;4.314;2023-04-25T10:48:46;13.60;99.90
17715;DHT22;8977;50.902;4.314;2023-04-25T10:51:22;13.60;99.90
17715;DHT22;8977;50.902;4.314;2023-04-25T10:53:59;13.60;99.90
17715;DHT22;8977;50.902;4.314;2023-04-25T10:56:27;13.70;99.90
17715;DHT22;8977;50.902;4.314;2023-04-25T10:59:08;13.60;99.90
17715;DHT22;8977;50.902;4.314;2023-04-25T11:01:39;13.50;99.90
17715;DHT22;8977;50.902;4.314;2023-04-25T11:04:21;13.50;99.90
17715;DHT22;8977;50.902;4.314;2023-04-25T11:06:59;13.40;99.90
17715;DHT22;8977;50.902;4.314;2023-04-25T11:09:29;13.50;99.90
17715;DHT22;8977;50.902;4.314;2023-04-25T11:11:57;13.60;99.90
17715;DHT22;8977;50.902;4.314;2023-04-25T11:14:25;13.50;99.90
17715;DHT22;8977;50.902;4.314;2023-04-25T11:16:54;13.50;99.90
17715;DHT22;8977;50.902;4.314;2023-04-25T11:19:22;13.60;99.90
17715;DHT22;8977;50.902;4.314;2023-04-25T11:21:49;13.60;99.90
17715;DHT22;8977;50.902;4.314;2023-04-25T11:24:17;13.50;99.90
17715;DHT22;8977;50.902;4.314;2023-04-25T11:26:47;13.60;99.90
17715;DHT22;8977;50.902;4.314;2023-04-25T11:29:14;13.60;99.90
17715;DHT22;8977;50.902;4.314;2023-04-25T11:31:43;13.60;99.90
17715;DHT22;8977;50.902;4.314;2023-04-25T11:34:17;13.60;99.90
17715;DHT22;8977;50.902;4.314;2023-04-25T11:36:47;13.60;99.90
17715;DHT22;8977;50.902;4.314;2023-04-25T11:39:14;13.80;99.90
17715;DHT22;8977;50.902;4.314;2023-04-25T11:41:41;13.80;99.90
17715;DHT22;8977;50.902;4.314;2023-04-25T11:44:08;13.70;99.90
17715;DHT22;8977;50.902;4.314;2023-04-25T11:46:36;13.70;99.90
17715;DHT22;8977;50.902;4.314;2023-04-25T11:49:03;13.70;99.90
17715;DHT22;8977;50.902;4.314;2023-04-25T11:51:39;13.80;99.90
17715;DHT22;8977;50.902;4.314;2023-04-25T11:54:06;13.80;99.90
17715;DHT22;8977;50.902;4.314;2023-04-25T11:56:34;13.80;99.90
17715;DHT22;8977;50.902;4.314;2023-04-25T11:59:03;13.90;99.90
17715;DHT22;8977;50.902;4.314;2023-04-25T12:01:31;13.90;99.90
17715;DHT22;8977;50.902;4.314;2023-04-25T12:04:09;14.00;99.90
17715;DHT22;8977;50.902;4.314;2023-04-25T12:06:38;13.90;99.90
17715;DHT22;8977;50.902;4.314;2023-04-25T12:09:08;13.90;99.90
17715;DHT22;8977;50.902;4.314;2023-04-25T12:11:41;13.80;99.90
17715;DHT22;8977;50.902;4.314;2023-04-25T12:14:21;13.90;99.90
17715;DHT22;8977;50.902;4.314;2023-04-25T12:16:50;13.90;99.40
17715;DHT22;8977;50.902;4.314;2023-04-25T12:19:19;13.90;99.40
17715;DHT22;8977;50.902;4.314;2023-04-25T12:21:48;13.80;99.00
17715;DHT22;8977;50.902;4.314;2023-04-25T12:24:16;13.80;98.70
17715;DHT22;8977;50.902;4.314;2023-04-25T12:26:51;13.80;98.40
17715;DHT22;8977;50.902;4.314;2023-04-25T12:29:20;13.90;98.40
17715;DHT22;8977;50.902;4.314;2023-04-25T12:31:47;14.00;98.50
17715;DHT22;8977;50.902;4.314;2023-04-25T12:34:14;14.10;98.30
17715;DHT22;8977;50.902;4.314;2023-04-25T12:36:42;14.20;98.60
17715;DHT22;8977;50.902;4.314;2023-04-25T12:39:14;14.10;99.20
17715;DHT22;8977;50.902;4.314;2023-04-25T12:41:41;14.10;99.00
17715;DHT22;8977;50.902;4.314;2023-04-25T12:44:09;14.10;98.80
17715;DHT22;8977;50.902;4.314;2023-04-25T12:46:37;14.10;98.90
17715;DHT22;8977;50.902;4.314;2023-04-25T12:49:04;14.10;99.30
17715;DHT22;8977;50.902;4.314;2023-04-25T12:51:32;14.10;99.60
17715;DHT22;8977;50.902;4.314;2023-04-25T12:54:00;13.90;99.90
17715;DHT22;8977;50.902;4.314;2023-04-25T12:56:28;13.90;99.90
17715;DHT22;8977;50.902;4.314;2023-04-25T12:58:57;13.90;99.40
17715;DHT22;8977;50.902;4.314;2023-04-25T13:01:24;13.80;99.50
17715;DHT22;8977;50.902;4.314;2023-04-25T13:03:52;13.80;99.60
17715;DHT22;8977;50.902;4.314;2023-04-25T13:06:20;13.80;99.90
17715;DHT22;8977;50.902;4.314;2023-04-25T13:08:47;14.00;99.40
17715;DHT22;8977;50.902;4.314;2023-04-25T13:11:14;14.10;99.30
17715;DHT22;8977;50.902;4.314;2023-04-25T13:13:44;14.20;99.40
17715;DHT22;8977;50.902;4.314;2023-04-25T13:16:11;14.20;99.50
17715;DHT22;8977;50.902;4.314;2023-04-25T13:18:40;14.30;98.70
17715;DHT22;8977;50.902;4.314;2023-04-25T13:21:08;14.40;98.00
17715;DHT22;8977;50.902;4.314;2023-04-25T13:23:36;14.50;97.70
17715;DHT22;8977;50.902;4.314;2023-04-25T13:26:04;14.70;96.60
17715;DHT22;8977;50.902;4.314;2023-04-25T13:28:31;14.80;96.60
17715;DHT22;8977;50.902;4.314;2023-04-25T13:30:59;14.90;96.90
17715;DHT22;8977;50.902;4.314;2023-04-25T13:33:26;15.00;97.10
17715;DHT22;8977;50.902;4.314;2023-04-25T13:35:53;15.10;97.20
17715;DHT22;8977;50.902;4.314;2023-04-25T13:38:22;15.30;97.00
17715;DHT22;8977;50.902;4.314;2023-04-25T13:40:49;15.40;97.20
17715;DHT22;8977;50.902;4.314;2023-04-25T13:43:18;15.40;97.70
17715;DHT22;8977;50.902;4.314;2023-04-25T13:45:46;15.20;98.60
17715;DHT22;8977;50.902;4.314;2023-04-25T13:48:14;15.10;98.80
17715;DHT22;8977;50.902;4.314;2023-04-25T13:50:41;15.00;98.70
17715;DHT22;8977;50.902;4.314;2023-04-25T13:53:08;14.90;98.30
17715;DHT22;8977;50.902;4.314;2023-04-25T13:55:36;14.80;98.90
17715;DHT22;8977;50.902;4.314;2023-04-25T13:58:04;14.80;98.50
17715;DHT22;8977;50.902;4.314;2023-04-25T14:00:35;14.70;98.80
17715;DHT22;8977;50.902;4.314;2023-04-25T14:03:03;14.70;98.30
17715;DHT22;8977;50.902;4.314;2023-04-25T14:05:34;14.70;98.30
17715;DHT22;8977;50.902;4.314;2023-04-25T14:08:05;14.70;98.20
17715;DHT22;8977;50.902;4.314;2023-04-25T14:10:32;14.70;98.10
17715;DHT22;8977;50.902;4.314;2023-04-25T14:13:00;14.70;98.60
17715;DHT22;8977;50.902;4.314;2023-04-25T14:15:29;14.70;98.50
17715;DHT22;8977;50.902;4.314;2023-04-25T14:17:57;14.80;98.20
17715;DHT22;8977;50.902;4.314;2023-04-25T14:20:24;14.80;98.10
17715;DHT22;8977;50.902;4.314;2023-04-25T14:22:52;14.90;98.10
17715;DHT22;8977;50.902;4.314;2023-04-25T14:25:21;14.80;97.70
17715;DHT22;8977;50.902;4.314;2023-04-25T14:27:48;14.80;97.90
17715;DHT22;8977;50.902;4.314;2023-04-25T14:30:16;14.80;98.00
17715;DHT22;8977;50.902;4.314;2023-04-25T14:32:43;14.90;97.90
17715;DHT22;8977;50.902;4.314;2023-04-25T14:35:11;14.80;98.30
17715;DHT22;8977;50.902;4.314;2023-04-25T14:37:37;14.90;98.30
17715;DHT22;8977;50.902;4.314;2023-04-25T14:40:07;14.80;98.50
17715;DHT22;8977;50.902;4.314;2023-04-25T14:42:36;14.70;98.40
17715;DHT22;8977;50.902;4.314;2023-04-25T14:45:03;14.70;98.20
17715;DHT22;8977;50.902;4.314;2023-04-25T14:47:30;14.60;98.40
17715;DHT22;8977;50.902;4.314;2023-04-25T14:49:58;14.60;98.20
17715;DHT22;8977;50.902;4.314;2023-04-25T14:52:26;14.60;98.30
17715;DHT22;8977;50.902;4.314;2023-04-25T14:54:53;14.60;98.60
17715;DHT22;8977;50.902;4.314;2023-04-25T14:57:22;14.60;98.80
17715;DHT22;8977;50.902;4.314;2023-04-25T14:59:49;14.70;98.50
17715;DHT22;8977;50.902;4.314;2023-04-25T15:02:16;14.60;98.20
17715;DHT22;8977;50.902;4.314;2023-04-25T15:04:44;14.60;98.30
17715;DHT22;8977;50.902;4.314;2023-04-25T15:07:11;14.60;98.60
17715;DHT22;8977;50.902;4.314;2023-04-25T15:09:38;14.60;98.50
17715;DHT22;8977;50.902;4.314;2023-04-25T15:12:05;14.50;98.10
17715;DHT22;8977;50.902;4.314;2023-04-25T15:14:34;14.50;97.50
17715;DHT22;8977;50.902;4.314;2023-04-25T15:17:00;14.50;97.70
17715;DHT22;8977;50.902;4.314;2023-04-25T15:19:28;14.50;97.60
17715;DHT22;8977;50.902;4.314;2023-04-25T15:21:54;14.70;97.60
17715;DHT22;8977;50.902;4.314;2023-04-25T15:24:22;14.80;98.10
17715;DHT22;8977;50.902;4.314;2023-04-25T15:26:49;14.80;97.70
17715;DHT22;8977;50.902;4.314;2023-04-25T15:29:16;14.90;97.60
17715;DHT22;8977;50.902;4.314;2023-04-25T15:31:44;14.70;97.80
17715;DHT22;8977;50.902;4.314;2023-04-25T15:34:11;14.80;98.10
17715;DHT22;8977;50.902;4.314;2023-04-25T15:36:38;14.90;98.10
17715;DHT22;8977;50.902;4.314;2023-04-25T15:39:05;15.00;97.90
17715;DHT22;8977;50.902;4.314;2023-04-25T15:41:32;15.10;98.00
17715;DHT22;8977;50.902;4.314;2023-04-25T15:43:59;15.20;98.20
17715;DHT22;8977;50.902;4.314;2023-04-25T15:46:27;15.20;97.80
17715;DHT22;8977;50.902;4.314;2023-04-25T15:48:57;15.20;98.00
17715;DHT22;8977;50.902;4.314;2023-04-25T15:51:23;15.30;97.30